createdAt,value
2022-08-07T00:00:25.828Z,6.83
2022-08-07T00:02:53.768Z,6.33
2022-08-07T00:05:23.670Z,7.23
2022-08-07T00:07:59.536Z,6.13
2022-08-07T00:10:30.041Z,6.73
2022-08-07T00:13:00.541Z,6.13
2022-08-07T00:15:38.344Z,6.13
2022-08-07T00:18:19.492Z,6.47
2022-08-07T00:20:49.678Z,6.47
2022-08-07T00:23:17.411Z,7.93
2022-08-07T00:25:51.809Z,7.23
2022-08-07T00:28:33.393Z,8.13
2022-08-07T00:31:12.259Z,8.53
2022-08-07T00:33:41.357Z,7.93
2022-08-07T00:36:09.953Z,8.37
2022-08-07T00:38:39.105Z,8.50
2022-08-07T00:41:09.773Z,9.40
2022-08-07T00:44:01.496Z,8.37
2022-08-07T00:46:29.274Z,8.47
2022-08-07T00:49:02.135Z,8.80
2022-08-07T00:51:58.180Z,8.83
2022-08-07T00:54:19.654Z,9.20
2022-08-07T00:56:49.597Z,9.53
2022-08-07T00:59:17.791Z,9.07
2022-08-07T01:01:48.644Z,9.07
2022-08-07T01:04:24.764Z,8.90
2022-08-07T01:06:52.626Z,8.43
2022-08-07T01:10:04.687Z,8.77
2022-08-07T01:12:29.681Z,8.87
2022-08-07T01:15:01.272Z,8.70
2022-08-07T01:17:30.209Z,8.80
2022-08-07T01:20:02.507Z,8.07
2022-08-07T01:22:32.164Z,7.83
2022-08-07T01:25:00.243Z,8.30
2022-08-07T01:27:32.272Z,7.73
2022-08-07T01:30:02.149Z,7.30
2022-08-07T01:32:30.049Z,7.83
2022-08-07T01:34:59.166Z,8.43
2022-08-07T01:37:27.305Z,7.27
2022-08-07T01:40:02.253Z,7.80
2022-08-07T01:42:40.135Z,7.63
2022-08-07T01:45:22.982Z,7.30
2022-08-07T01:48:20.458Z,8.20
2022-08-07T01:52:02.706Z,7.63
2022-08-07T01:54:11.880Z,8.33
2022-08-07T01:57:03.292Z,7.37
2022-08-07T01:59:43.811Z,8.13
2022-08-07T02:03:05.715Z,7.77
2022-08-07T02:05:08.610Z,8.03
2022-08-07T02:07:50.546Z,7.97
2022-08-07T02:10:26.308Z,9.17
2022-08-07T02:12:55.867Z,8.33
2022-08-07T02:15:32.212Z,7.83
2022-08-07T02:18:02.880Z,8.63
2022-08-07T02:20:31.991Z,7.60
2022-08-07T02:23:02.455Z,8.10
2022-08-07T02:26:10.906Z,8.37
2022-08-07T02:28:24.530Z,7.80
2022-08-07T02:30:54.567Z,7.97
2022-08-07T02:33:23.224Z,7.27
2022-08-07T02:36:30.136Z,8.60
2022-08-07T02:38:40.418Z,8.67
2022-08-07T02:41:21.793Z,8.17
2022-08-07T02:43:52.027Z,8.17
2022-08-07T02:46:24.225Z,8.43
2022-08-07T02:48:55.393Z,8.63
2022-08-07T02:51:42.938Z,8.27
2022-08-07T02:54:13.499Z,8.10
2022-08-07T02:56:42.342Z,8.43
2022-08-07T02:59:11.740Z,8.40
2022-08-07T03:01:40.504Z,8.90
2022-08-07T03:04:14.198Z,8.67
2022-08-07T03:06:44.802Z,8.57
2022-08-07T03:09:14.217Z,8.80
2022-08-07T03:11:51.705Z,8.37
2022-08-07T03:14:22.496Z,9.47
2022-08-07T03:16:50.885Z,9.17
2022-08-07T03:19:21.344Z,8.40
2022-08-07T03:21:51.010Z,8.63
2022-08-07T03:24:27.222Z,9.63
2022-08-07T03:27:03.318Z,7.70
2022-08-07T03:29:46.174Z,7.93
2022-08-07T03:32:21.653Z,9.27
2022-08-07T03:35:17.092Z,9.03
2022-08-07T03:37:45.857Z,9.07
2022-08-07T03:40:22.620Z,8.70
2022-08-07T03:42:51.201Z,8.97
2022-08-07T03:45:29.408Z,8.97
2022-08-07T03:48:03.157Z,9.00
2022-08-07T03:50:32.197Z,9.53
2022-08-07T03:53:03.739Z,8.87
2022-08-07T03:55:57.505Z,9.00
2022-08-07T03:59:06.835Z,9.07
2022-08-07T04:01:11.768Z,9.00
2022-08-07T04:03:54.039Z,8.43
2022-08-07T04:06:37.907Z,9.13
2022-08-07T04:09:15.692Z,8.47
2022-08-07T04:12:24.114Z,9.77
2022-08-07T04:14:39.043Z,9.40
2022-08-07T04:17:20.034Z,9.93
2022-08-07T04:19:54.017Z,9.70
2022-08-07T04:22:29.180Z,8.97
2022-08-07T04:25:01.965Z,10.20
2022-08-07T04:27:35.928Z,10.20
2022-08-07T04:30:21.335Z,10.20
2022-08-07T04:33:07.665Z,9.70
2022-08-07T04:35:38.465Z,9.97
2022-08-07T04:38:13.228Z,10.00
2022-08-07T04:40:52.607Z,9.70
2022-08-07T04:44:11.889Z,9.93
2022-08-07T04:46:34.499Z,10.20
2022-08-07T04:49:24.619Z,10.17
2022-08-07T04:52:15.406Z,10.73
2022-08-07T04:55:14.787Z,10.73
2022-08-07T04:58:24.119Z,10.17
2022-08-07T05:00:44.004Z,10.10
2022-08-07T05:04:06.975Z,11.13
2022-08-07T05:06:23.425Z,11.67
2022-08-07T05:09:02.642Z,11.20
2022-08-07T05:11:56.881Z,10.93
2022-08-07T05:14:52.324Z,10.60
2022-08-07T05:17:53.054Z,10.33
2022-08-07T05:20:10.097Z,10.80
2022-08-07T05:22:40.021Z,9.67
2022-08-07T05:25:25.289Z,9.27
2022-08-07T05:28:16.798Z,9.33
2022-08-07T05:30:47.202Z,9.83
2022-08-07T05:33:18.023Z,9.13
2022-08-07T05:35:48.776Z,9.07
2022-08-07T05:38:58.184Z,8.50
2022-08-07T05:41:05.536Z,8.43
2022-08-07T05:44:01.553Z,8.00
2022-08-07T05:46:29.687Z,7.77
2022-08-07T05:48:59.455Z,8.70
2022-08-07T05:51:31.604Z,9.20
2022-08-07T05:54:12.781Z,9.10
2022-08-07T05:56:51.303Z,8.43
2022-08-07T05:59:20.849Z,8.80
2022-08-07T06:01:52.972Z,8.50
2022-08-07T06:04:22.175Z,9.67
2022-08-07T06:07:03.776Z,8.77
2022-08-07T06:10:04.259Z,9.10
2022-08-07T06:12:31.738Z,8.43
2022-08-07T06:15:05.610Z,8.90
2022-08-07T06:17:37.516Z,9.27
2022-08-07T06:20:12.712Z,9.20
2022-08-07T06:23:02.445Z,8.27
2022-08-07T06:25:54.873Z,9.30
2022-08-07T06:28:27.810Z,8.50
2022-08-07T06:30:58.330Z,9.07
2022-08-07T06:33:27.364Z,9.63
2022-08-07T06:36:12.001Z,9.37
2022-08-07T06:38:58.835Z,9.43
2022-08-07T06:42:01.080Z,9.67
2022-08-07T06:44:51.453Z,8.50
2022-08-07T06:47:21.314Z,9.17
2022-08-07T06:49:58.675Z,9.20
2022-08-07T06:52:35.935Z,8.20
2022-08-07T06:55:31.895Z,9.60
2022-08-07T06:58:05.674Z,9.67
2022-08-07T07:00:45.342Z,9.40
2022-08-07T07:03:16.995Z,8.50
2022-08-07T07:06:05.475Z,8.60
2022-08-07T07:08:34.864Z,8.43
2022-08-07T07:11:13.949Z,8.60
2022-08-07T07:13:58.105Z,8.10
2022-08-07T07:16:31.566Z,9.20
2022-08-07T07:19:55.203Z,8.37
2022-08-07T07:22:11.600Z,7.90
2022-08-07T07:24:43.206Z,7.63
2022-08-07T07:27:35.670Z,7.17
2022-08-07T07:30:32.491Z,8.17
2022-08-07T07:33:04.493Z,6.90
2022-08-07T07:35:33.500Z,7.30
2022-08-07T07:38:04.802Z,7.33
2022-08-07T07:40:33.982Z,7.20
2022-08-07T07:43:15.376Z,7.73
2022-08-07T07:46:37.884Z,7.87
2022-08-07T07:48:40.518Z,7.47
2022-08-07T07:51:13.482Z,7.03
2022-08-07T07:53:44.966Z,6.93
2022-08-07T07:56:30.125Z,6.73
2022-08-07T07:58:59.419Z,5.97
2022-08-07T08:02:03.023Z,6.67
2022-08-07T08:04:16.833Z,6.30
2022-08-07T08:06:52.202Z,6.27
2022-08-07T08:09:22.772Z,6.10
2022-08-07T08:12:01.833Z,6.57
2022-08-07T08:14:31.549Z,5.70
2022-08-07T08:17:56.738Z,5.60
2022-08-07T08:20:18.529Z,4.93
2022-08-07T08:22:59.826Z,5.00
2022-08-07T08:25:49.277Z,5.80
2022-08-07T08:28:23.967Z,5.80
2022-08-07T08:31:06.141Z,6.30
2022-08-07T08:33:34.738Z,5.37
2022-08-07T08:36:03.374Z,5.20
2022-08-07T08:38:40.688Z,5.43
2022-08-07T08:41:31.442Z,5.87
2022-08-07T08:44:41.154Z,4.80
2022-08-07T08:47:20.662Z,5.10
2022-08-07T08:50:34.711Z,5.23
2022-08-07T08:53:26.506Z,5.90
2022-08-07T08:55:59.365Z,5.77
2022-08-07T08:58:45.542Z,5.03
2022-08-07T09:01:43.786Z,5.50
2022-08-07T09:04:37.634Z,5.33
2022-08-07T09:07:12.427Z,4.90
2022-08-07T09:10:12.711Z,4.67
2022-08-07T09:13:07.429Z,4.73
2022-08-07T09:16:22.203Z,5.13
2022-08-07T09:22:09.554Z,5.20
2022-08-07T09:25:12.007Z,5.67
2022-08-07T09:28:00.515Z,4.87
2022-08-07T09:30:44.179Z,4.90
2022-08-07T09:33:53.143Z,4.80
2022-08-07T09:36:27.021Z,4.90
2022-08-07T09:38:59.533Z,4.93
2022-08-07T09:41:59.078Z,4.53
2022-08-07T09:47:50.259Z,4.90
2022-08-07T09:48:04.027Z,4.70
2022-08-07T09:50:52.301Z,4.60
2022-08-07T09:53:22.605Z,4.27
2022-08-07T09:56:09.241Z,4.40
2022-08-07T09:58:48.824Z,4.67
2022-08-07T10:01:53.582Z,3.67
2022-08-07T10:04:57.424Z,4.40
2022-08-07T10:07:53.202Z,3.40
2022-08-07T10:11:16.252Z,4.00
2022-08-07T10:14:00.881Z,3.87
2022-08-07T10:16:52.854Z,3.83
2022-08-07T10:19:49.007Z,3.07
2022-08-07T10:23:07.627Z,3.20
2022-08-07T10:25:55.941Z,3.07
2022-08-07T10:28:50.166Z,3.30
2022-08-07T10:31:53.913Z,3.13
2022-08-07T10:34:42.922Z,3.00
2022-08-07T10:38:20.847Z,3.13
2022-08-07T10:41:46.865Z,3.50
2022-08-07T10:44:52.453Z,3.13
2022-08-07T10:47:56.564Z,3.13
2022-08-07T10:50:42.621Z,2.97
2022-08-07T10:54:12.343Z,3.80
2022-08-07T10:57:11.591Z,3.13
2022-08-07T11:00:39.412Z,2.97
2022-08-07T11:03:37.693Z,3.53
2022-08-07T11:06:29.740Z,3.07
2022-08-07T11:09:11.052Z,2.70
2022-08-07T11:12:06.758Z,2.77
2022-08-07T11:14:46.297Z,3.17
2022-08-07T11:18:03.713Z,2.70
2022-08-07T11:20:50.124Z,2.93
2022-08-07T11:24:02.077Z,2.53
2022-08-07T11:26:50.270Z,2.73
2022-08-07T11:29:47.399Z,2.40
2022-08-07T11:32:26.483Z,3.17
2022-08-07T11:34:59.735Z,2.80
2022-08-07T11:37:58.399Z,2.57
2022-08-07T11:40:51.777Z,2.87
2022-08-07T11:43:54.951Z,2.67
2022-08-07T11:47:10.034Z,2.90
2022-08-07T11:50:32.338Z,2.70
2022-08-07T11:53:35.248Z,2.00
2022-08-07T11:56:35.235Z,2.50
2022-08-07T12:00:11.262Z,2.33
2022-08-07T12:03:41.873Z,2.47
2022-08-07T12:06:37.693Z,2.43
2022-08-07T12:09:23.345Z,2.43
2022-08-07T12:12:19.252Z,2.50
2022-08-07T12:15:01.258Z,2.37
2022-08-07T12:17:59.495Z,2.30
2022-08-07T12:20:43.503Z,2.10
2022-08-07T12:38:38.483Z,2.47
2022-08-07T12:41:11.667Z,2.33
2022-08-07T12:44:01.403Z,2.30
2022-08-07T12:56:41.942Z,1.70
2022-08-07T12:59:22.569Z,1.90
2022-08-07T13:02:36.082Z,2.10
2022-08-07T13:08:50.786Z,2.00
2022-08-07T13:12:10.207Z,2.43
2022-08-07T13:15:29.716Z,1.63
2022-08-07T13:21:37.255Z,1.97
2022-08-07T13:24:52.251Z,1.90
2022-08-07T13:28:05.678Z,1.80
2022-08-07T13:30:19.748Z,2.20
2022-08-07T13:34:31.257Z,2.03
2022-08-07T13:36:47.826Z,2.00
2022-08-07T13:40:33.784Z,2.00
2022-08-07T13:42:28.050Z,1.87
2022-08-07T13:45:21.025Z,2.13
2022-08-07T13:48:06.171Z,2.10
2022-08-07T13:50:45.208Z,1.77
2022-08-07T13:53:36.042Z,1.87
2022-08-07T13:56:35.516Z,1.40
2022-08-07T13:59:20.622Z,1.50
2022-08-07T14:02:10.214Z,1.80
2022-08-07T14:05:00.518Z,1.67
2022-08-07T14:07:33.552Z,1.50
2022-08-07T14:10:16.414Z,1.70
2022-08-07T14:13:05.028Z,1.93
2022-08-07T14:15:39.748Z,1.43
2022-08-07T14:18:28.750Z,1.70
2022-08-07T14:22:03.426Z,1.50
2022-08-07T14:24:41.199Z,1.60
2022-08-07T14:28:10.875Z,1.60
2022-08-07T14:30:11.196Z,1.50
2022-08-07T14:32:48.270Z,1.63
2022-08-07T14:35:43.200Z,1.53
2022-08-07T14:38:26.588Z,1.63
2022-08-07T14:41:05.953Z,1.53
2022-08-07T14:43:57.612Z,1.50
2022-08-07T14:46:32.056Z,1.60
2022-08-07T14:49:56.481Z,1.50
2022-08-07T14:52:05.143Z,1.50
2022-08-07T15:00:20.646Z,1.50
2022-08-07T15:03:18.994Z,1.50
2022-08-07T15:05:55.284Z,1.50
2022-08-07T15:14:30.383Z,1.47
2022-08-07T15:17:01.372Z,1.50
2022-08-07T15:20:30.845Z,1.50
2022-08-07T15:22:33.459Z,1.53
2022-08-07T15:25:18.658Z,1.70
2022-08-07T15:28:32.477Z,1.57
2022-08-07T15:33:33.547Z,1.70
2022-08-07T15:36:06.689Z,1.77
2022-08-07T15:38:51.711Z,1.60
2022-08-07T15:42:44.165Z,1.43
2022-08-07T15:44:21.191Z,1.40
2022-08-07T15:47:08.952Z,1.50
2022-08-07T15:50:05.449Z,1.20
2022-08-07T15:52:37.182Z,1.27
2022-08-07T15:55:11.631Z,1.30
2022-08-07T15:57:48.727Z,1.47
2022-08-07T16:00:32.004Z,1.70
2022-08-07T16:03:21.447Z,1.30
2022-08-07T16:05:59.280Z,1.50
2022-08-07T16:08:37.578Z,2.23
2022-08-07T16:11:26.702Z,1.87
2022-08-07T16:14:36.276Z,1.40
2022-08-07T16:18:02.159Z,1.50
2022-08-07T16:22:01.498Z,1.53
2022-08-07T16:24:35.608Z,1.63
2022-08-07T16:27:41.471Z,1.47
2022-08-07T16:30:30.131Z,1.47
2022-08-07T16:34:02.929Z,1.70
2022-08-07T16:37:03.173Z,1.50
2022-08-07T16:40:30.690Z,1.40
2022-08-07T16:44:05.886Z,1.70
2022-08-07T16:47:45.408Z,1.57
2022-08-07T16:51:20.424Z,1.40
2022-08-07T16:57:15.369Z,1.80
2022-08-07T17:00:29.611Z,1.97
2022-08-07T17:03:17.878Z,1.90
2022-08-07T17:06:31.536Z,2.03
2022-08-07T17:15:44.299Z,2.00
2022-08-07T17:19:02.650Z,1.73
2022-08-07T17:21:51.785Z,1.80
2022-08-07T17:27:51.139Z,2.00
2022-08-07T17:30:26.683Z,1.80
2022-08-07T17:34:32.875Z,1.83
2022-08-07T17:36:29.064Z,2.40
2022-08-07T17:39:24.897Z,2.47
2022-08-07T17:42:58.332Z,2.00
2022-08-07T17:45:42.202Z,2.40
2022-08-07T17:48:31.074Z,1.90
2022-08-07T17:51:21.655Z,2.10
2022-08-07T17:54:06.498Z,1.87
2022-08-07T17:57:02.494Z,2.13
2022-08-07T17:59:51.674Z,2.20
2022-08-07T18:03:00.251Z,2.10
2022-08-07T18:06:06.707Z,2.07
2022-08-07T18:09:01.818Z,2.13
2022-08-07T18:12:17.577Z,1.90
2022-08-07T18:14:46.549Z,2.00
2022-08-07T18:18:46.956Z,1.93
2022-08-07T18:21:30.673Z,2.00
2022-08-07T18:24:28.513Z,1.77
2022-08-07T19:16:05.634Z,2.07
2022-08-07T19:22:04.823Z,2.13
2022-08-07T19:24:44.572Z,2.23
2022-08-07T19:28:58.535Z,2.40
2022-08-07T19:30:56.025Z,2.40
2022-08-07T19:33:12.842Z,2.10
2022-08-07T19:35:46.799Z,2.27
2022-08-07T19:38:20.501Z,2.40
2022-08-07T19:40:51.649Z,2.10
2022-08-07T19:43:48.581Z,2.30
2022-08-07T19:46:16.009Z,2.30
2022-08-07T19:48:54.155Z,2.13
2022-08-07T19:51:24.118Z,2.23
2022-08-07T19:54:33.034Z,2.30
2022-08-07T19:57:56.845Z,2.40
2022-08-07T19:59:56.015Z,2.30
2022-08-07T20:02:31.608Z,2.40
2022-08-07T20:05:02.968Z,2.47
2022-08-07T20:07:47.609Z,2.47
2022-08-07T20:10:35.059Z,2.40
2022-08-07T20:13:26.713Z,2.50
2022-08-07T20:15:58.378Z,2.73
2022-08-07T20:18:32.721Z,2.23
2022-08-07T20:21:03.952Z,2.77
2022-08-07T20:23:57.802Z,2.33
2022-08-07T20:26:38.636Z,2.07
2022-08-07T20:29:46.908Z,2.90
2022-08-07T20:32:11.317Z,2.80
2022-08-07T20:34:50.647Z,2.57
2022-08-07T20:37:23.915Z,2.40
2022-08-07T20:40:04.303Z,2.67
2022-08-07T20:42:37.438Z,2.73
2022-08-07T20:46:24.183Z,2.63
2022-08-07T20:47:57.789Z,2.40
2022-08-07T20:50:29.028Z,2.73
2022-08-07T20:52:58.600Z,2.70
2022-08-07T20:55:25.986Z,2.87
2022-08-07T20:58:02.430Z,2.50
2022-08-07T21:00:57.785Z,2.77
2022-08-07T21:03:26.863Z,2.70
2022-08-07T21:06:12.367Z,2.50
2022-08-07T21:09:07.464Z,2.47
2022-08-07T21:11:51.159Z,2.60
2022-08-07T21:14:33.394Z,2.60
2022-08-07T21:18:02.256Z,2.37
2022-08-07T21:20:00.910Z,2.50
2022-08-07T21:22:44.718Z,2.63
2022-08-07T21:25:38.926Z,3.13
2022-08-07T21:28:16.869Z,2.50
2022-08-07T21:31:50.164Z,2.87
2022-08-07T21:35:09.381Z,2.77
2022-08-07T21:37:58.536Z,2.60
2022-08-07T21:41:18.165Z,2.30
2022-08-07T21:44:07.193Z,2.93
2022-08-07T21:47:24.233Z,3.13
2022-08-07T21:50:03.635Z,3.00
2022-08-07T21:52:50.288Z,2.90
2022-08-07T21:55:27.882Z,2.93
2022-08-07T21:58:32.374Z,2.40
2022-08-07T22:01:08.409Z,2.80
2022-08-07T22:03:51.584Z,2.97
2022-08-07T22:06:30.481Z,3.47
2022-08-07T22:09:07.962Z,3.53
2022-08-07T22:12:05.747Z,3.10
2022-08-07T22:14:38.986Z,3.33
2022-08-07T22:17:40.601Z,2.90
2022-08-07T22:20:32.371Z,3.00
2022-08-07T22:23:24.462Z,3.07
2022-08-07T22:26:34.653Z,3.43
2022-08-07T22:29:33.708Z,3.40
2022-08-07T22:32:30.876Z,4.10
2022-08-07T22:35:02.287Z,3.40
2022-08-07T22:38:03.311Z,3.40
2022-08-07T22:41:29.158Z,3.40
2022-08-07T22:44:18.929Z,2.97
2022-08-07T22:47:38.219Z,3.53
2022-08-07T22:50:34.068Z,3.20
2022-08-07T22:54:07.110Z,3.20
2022-08-07T22:57:18.969Z,3.20
2022-08-07T23:00:21.382Z,3.20
2022-08-07T23:03:57.930Z,3.30
2022-08-07T23:07:41.594Z,3.30
2022-08-07T23:14:15.101Z,3.77
2022-08-07T23:24:07.100Z,3.70
2022-08-07T23:39:40.970Z,3.80
2022-08-07T23:42:43.434Z,3.90
2022-08-07T23:46:03.215Z,3.33
2022-08-07T23:49:49.999Z,3.53
2022-08-07T23:53:01.918Z,3.63
2022-08-07T23:55:55.904Z,3.37
